createdAt,value
2023-03-17T00:01:01.757Z,61.63
2023-03-17T00:03:38.542Z,61.79
2023-03-17T00:06:17.768Z,61.68
2023-03-17T00:08:51.616Z,61.70
2023-03-17T00:11:25.899Z,61.87
2023-03-17T00:13:59.452Z,61.79
2023-03-17T00:16:36.685Z,61.94
2023-03-17T00:19:12.583Z,61.96
2023-03-17T00:21:47.435Z,62.01
2023-03-17T00:24:21.649Z,61.99
2023-03-17T00:26:55.046Z,62.01
2023-03-17T00:29:28.906Z,62.14
2023-03-17T00:32:02.825Z,62.22
2023-03-17T00:34:36.558Z,62.25
2023-03-17T00:37:14.342Z,62.20
2023-03-17T00:39:48.038Z,62.27
2023-03-17T00:42:22.031Z,62.39
2023-03-17T00:44:55.918Z,62.45
2023-03-17T00:47:29.609Z,62.39
2023-03-17T00:50:03.504Z,62.45
2023-03-17T00:52:37.210Z,62.41
2023-03-17T00:55:12.466Z,62.52
2023-03-17T00:57:46.314Z,62.43
2023-03-17T01:00:26.784Z,62.46
2023-03-17T01:03:00.982Z,62.47
2023-03-17T01:05:34.539Z,62.52
2023-03-17T01:08:09.624Z,62.64
2023-03-17T01:10:43.877Z,62.65
2023-03-17T01:13:18.186Z,62.72
2023-03-17T01:15:53.139Z,62.80
2023-03-17T01:18:28.143Z,62.86
2023-03-17T01:21:02.051Z,62.87
2023-03-17T01:23:36.017Z,62.81
2023-03-17T01:26:10.222Z,62.86
2023-03-17T01:28:44.320Z,63.09
2023-03-17T01:31:17.645Z,63.09
2023-03-17T01:33:51.710Z,63.07
2023-03-17T01:36:25.644Z,63.12
2023-03-17T01:38:59.827Z,63.19
2023-03-17T01:41:36.924Z,63.15
2023-03-17T01:44:14.335Z,63.16
2023-03-17T01:46:49.842Z,63.18
2023-03-17T01:49:31.953Z,63.22
2023-03-17T01:52:10.294Z,63.19
2023-03-17T01:54:45.774Z,63.18
2023-03-17T01:57:25.346Z,63.18
2023-03-17T02:00:06.342Z,63.32
2023-03-17T02:02:50.436Z,63.45
2023-03-17T02:05:26.687Z,63.52
2023-03-17T02:08:01.379Z,63.69
2023-03-17T02:10:35.475Z,63.72
2023-03-17T02:13:10.352Z,63.71
2023-03-17T02:15:47.640Z,63.70
2023-03-17T02:18:24.019Z,63.60
2023-03-17T02:21:39.395Z,63.58
2023-03-17T02:24:22.739Z,63.58
2023-03-17T02:26:59.800Z,63.68
2023-03-17T02:29:38.020Z,63.68
2023-03-17T02:32:12.161Z,63.77
2023-03-17T02:34:45.817Z,63.80
2023-03-17T02:37:20.679Z,63.80
2023-03-17T02:39:54.209Z,63.94
2023-03-17T02:42:28.631Z,64.06
2023-03-17T02:45:06.660Z,64.09
2023-03-17T02:47:41.716Z,64.09
2023-03-17T02:50:22.521Z,64.05
2023-03-17T02:52:56.389Z,64.01
2023-03-17T02:55:29.925Z,63.87
2023-03-17T02:58:04.100Z,64.00
2023-03-17T03:00:39.115Z,64.11
2023-03-17T03:03:12.984Z,63.95
2023-03-17T03:05:47.449Z,64.05
2023-03-17T03:08:21.074Z,64.17
2023-03-17T03:10:55.350Z,64.14
2023-03-17T03:13:29.229Z,64.19
2023-03-17T03:16:03.121Z,64.23
2023-03-17T03:18:37.469Z,64.29
2023-03-17T03:21:12.494Z,64.19
2023-03-17T03:23:46.165Z,64.14
2023-03-17T03:26:20.289Z,64.20
2023-03-17T03:28:54.255Z,64.16
2023-03-17T03:31:28.382Z,64.12
2023-03-17T03:34:02.043Z,64.15
2023-03-17T03:36:35.570Z,64.18
2023-03-17T03:39:10.744Z,64.36
2023-03-17T03:41:45.807Z,64.50
2023-03-17T03:44:19.581Z,64.52
2023-03-17T03:46:53.388Z,64.59
2023-03-17T03:49:27.166Z,64.78
2023-03-17T03:52:00.640Z,64.75
2023-03-17T03:54:34.404Z,64.74
2023-03-17T03:57:08.262Z,64.66
2023-03-17T03:59:42.156Z,64.57
2023-03-17T04:02:17.484Z,64.63
2023-03-17T04:04:52.103Z,64.73
2023-03-17T04:07:25.967Z,64.91
2023-03-17T04:10:00.204Z,65.03
2023-03-17T04:12:33.896Z,65.19
2023-03-17T04:15:09.427Z,65.18
2023-03-17T04:17:42.899Z,65.21
2023-03-17T04:20:18.083Z,65.25
2023-03-17T04:22:51.710Z,65.32
2023-03-17T04:25:25.229Z,65.22
2023-03-17T04:27:58.613Z,65.21
2023-03-17T04:30:32.841Z,65.16
2023-03-17T04:33:07.554Z,65.17
2023-03-17T04:35:43.016Z,65.23
2023-03-17T04:38:16.851Z,65.43
2023-03-17T04:40:51.368Z,65.44
2023-03-17T04:43:24.849Z,65.46
2023-03-17T04:45:58.647Z,65.42
2023-03-17T04:48:32.417Z,65.40
2023-03-17T04:51:06.510Z,65.44
2023-03-17T04:53:40.343Z,65.55
2023-03-17T04:56:14.474Z,65.67
2023-03-17T04:58:48.311Z,65.70
2023-03-17T05:01:21.940Z,65.61
2023-03-17T05:03:55.565Z,65.69
2023-03-17T05:06:29.530Z,65.66
2023-03-17T05:09:04.012Z,65.75
2023-03-17T05:11:38.241Z,65.87
2023-03-17T05:14:11.656Z,65.82
2023-03-17T05:16:48.452Z,65.82
2023-03-17T05:19:22.378Z,65.78
2023-03-17T05:21:56.483Z,65.79
2023-03-17T05:24:30.122Z,65.72
2023-03-17T05:27:04.166Z,65.66
2023-03-17T05:29:38.424Z,65.66
2023-03-17T05:32:12.809Z,65.63
2023-03-17T05:34:46.674Z,65.91
2023-03-17T05:37:20.689Z,66.76
2023-03-17T05:39:54.492Z,67.49
2023-03-17T05:42:28.854Z,66.78
2023-03-17T05:45:02.643Z,66.11
2023-03-17T05:47:36.504Z,66.56
2023-03-17T05:50:12.027Z,65.31
2023-03-17T05:52:45.945Z,63.84
2023-03-17T05:55:19.827Z,61.84
2023-03-17T05:57:53.265Z,61.13
2023-03-17T06:00:29.677Z,59.65
2023-03-17T06:03:04.162Z,58.21
2023-03-17T06:05:37.957Z,57.42
2023-03-17T06:08:11.536Z,57.49
2023-03-17T06:10:44.735Z,56.39
2023-03-17T06:13:18.505Z,54.88
2023-03-17T06:15:54.197Z,53.67
2023-03-17T06:18:27.751Z,53.57
2023-03-17T06:21:02.206Z,52.54
2023-03-17T06:23:37.240Z,51.46
2023-03-17T06:26:11.277Z,51.19
2023-03-17T06:28:44.824Z,51.23
2023-03-17T06:31:18.571Z,52.09
2023-03-17T06:33:52.468Z,53.14
2023-03-17T06:36:26.283Z,54.05
2023-03-17T06:39:00.128Z,54.75
2023-03-17T06:41:33.863Z,54.07
2023-03-17T06:44:07.775Z,51.86
2023-03-17T06:46:41.812Z,49.00
2023-03-17T06:49:16.366Z,48.72
2023-03-17T06:51:50.253Z,47.89
2023-03-17T06:54:25.865Z,48.56
2023-03-17T06:56:59.948Z,49.53
2023-03-17T06:59:34.064Z,47.86
2023-03-17T07:02:07.781Z,46.45
2023-03-17T07:04:42.120Z,43.70
2023-03-17T07:07:16.593Z,41.84
2023-03-17T07:09:50.219Z,42.39
2023-03-17T07:12:24.275Z,42.43
2023-03-17T07:14:58.527Z,41.12
2023-03-17T07:17:33.211Z,40.38
2023-03-17T07:20:07.764Z,39.58
2023-03-17T07:22:41.513Z,38.47
2023-03-17T07:25:15.615Z,37.90
2023-03-17T07:27:49.758Z,37.54
2023-03-17T07:30:23.798Z,34.11
2023-03-17T07:32:58.902Z,34.12
2023-03-17T07:35:34.305Z,34.32
2023-03-17T07:38:08.470Z,33.13
2023-03-17T07:40:42.558Z,32.95
2023-03-17T07:43:17.168Z,32.72
2023-03-17T07:45:51.340Z,31.71
2023-03-17T07:48:24.809Z,30.72
2023-03-17T07:50:59.111Z,32.51
2023-03-17T07:53:32.408Z,33.25
2023-03-17T07:56:06.308Z,33.03
2023-03-17T07:58:40.535Z,31.58
2023-03-17T08:01:14.304Z,31.54
2023-03-17T08:03:48.412Z,32.69
2023-03-17T08:06:22.429Z,32.20
2023-03-17T08:08:56.874Z,33.24
2023-03-17T08:11:30.169Z,34.21
2023-03-17T08:14:03.926Z,32.80
2023-03-17T08:16:38.003Z,30.33
2023-03-17T08:19:12.125Z,30.81
2023-03-17T08:21:46.161Z,29.87
2023-03-17T08:24:21.140Z,30.35
2023-03-17T08:26:54.667Z,29.67
2023-03-17T08:29:30.560Z,28.12
2023-03-17T08:32:04.640Z,28.04
2023-03-17T08:34:38.856Z,28.08
2023-03-17T08:37:12.897Z,27.80
2023-03-17T08:39:47.175Z,28.14
2023-03-17T08:42:20.842Z,29.32
2023-03-17T08:44:54.266Z,29.57
2023-03-17T08:47:28.697Z,30.10
2023-03-17T08:50:02.697Z,30.52
2023-03-17T08:52:36.648Z,30.73
2023-03-17T08:55:13.012Z,31.46
2023-03-17T08:57:47.018Z,32.56
2023-03-17T09:00:22.580Z,32.26
2023-03-17T09:02:57.343Z,31.90
2023-03-17T09:05:32.200Z,32.00
2023-03-17T09:08:05.709Z,31.70
2023-03-17T09:10:39.735Z,31.60
2023-03-17T09:13:13.357Z,30.95
2023-03-17T09:15:48.391Z,30.56
2023-03-17T09:18:22.736Z,30.34
2023-03-17T09:20:56.748Z,30.71
2023-03-17T09:23:30.997Z,30.25
2023-03-17T09:26:05.159Z,30.37
2023-03-17T09:28:38.737Z,28.76
2023-03-17T09:31:13.281Z,26.41
2023-03-17T09:33:47.688Z,25.93
2023-03-17T09:36:22.055Z,26.79
2023-03-17T09:38:56.207Z,27.54
2023-03-17T09:41:57.389Z,28.62
2023-03-17T09:44:46.843Z,30.05
2023-03-17T09:47:38.480Z,30.99
2023-03-17T09:50:17.904Z,31.86
2023-03-17T09:52:53.475Z,32.92
2023-03-17T09:55:31.496Z,33.47
2023-03-17T09:58:05.705Z,31.72
2023-03-17T10:00:39.878Z,31.84
2023-03-17T10:03:15.368Z,30.15
2023-03-17T10:05:49.536Z,29.89
2023-03-17T10:08:31.571Z,28.07
2023-03-17T10:11:15.702Z,27.17
2023-03-17T10:13:59.030Z,26.00
2023-03-17T10:16:42.096Z,26.21
2023-03-17T10:19:23.833Z,27.64
2023-03-17T10:22:03.037Z,28.52
2023-03-17T10:24:41.609Z,29.12
2023-03-17T10:27:17.496Z,29.74
2023-03-17T10:29:51.328Z,30.10
2023-03-17T10:32:24.895Z,30.79
2023-03-17T10:34:58.968Z,31.03
2023-03-17T10:37:36.997Z,31.87
2023-03-17T10:40:22.567Z,32.50
2023-03-17T10:43:04.067Z,32.76
2023-03-17T10:45:44.075Z,32.31
2023-03-17T10:48:21.199Z,32.29
2023-03-17T10:50:58.738Z,32.00
2023-03-17T10:53:43.657Z,30.37
2023-03-17T10:56:25.085Z,30.27
2023-03-17T10:58:59.265Z,30.44
2023-03-17T11:01:41.746Z,29.62
2023-03-17T11:04:31.165Z,28.42
2023-03-17T11:07:11.845Z,29.01
2023-03-17T11:09:51.004Z,29.27
2023-03-17T11:12:28.890Z,30.27
2023-03-17T11:15:08.966Z,28.62
2023-03-17T11:17:50.477Z,27.90
2023-03-17T11:20:42.802Z,27.89
2023-03-17T11:23:35.312Z,27.94
2023-03-17T11:26:19.622Z,27.61
2023-03-17T11:29:01.283Z,27.11
2023-03-17T11:31:40.350Z,27.74
2023-03-17T11:34:22.333Z,28.04
2023-03-17T11:37:07.302Z,28.18
2023-03-17T11:39:50.938Z,27.30
2023-03-17T11:42:29.559Z,27.04
2023-03-17T11:45:15.978Z,27.70
2023-03-17T11:48:10.989Z,27.39
2023-03-17T11:51:01.645Z,26.77
2023-03-17T11:53:51.242Z,27.00
2023-03-17T11:56:33.800Z,27.33
2023-03-17T11:59:14.931Z,27.45
2023-03-17T12:01:57.155Z,28.04
2023-03-17T12:04:36.516Z,28.10
2023-03-17T12:07:18.732Z,28.19
2023-03-17T12:10:01.333Z,27.55
2023-03-17T12:12:41.606Z,28.04
2023-03-17T12:15:21.461Z,27.93
2023-03-17T12:17:59.576Z,28.60
2023-03-17T12:20:41.456Z,28.58
2023-03-17T12:23:29.738Z,28.72
2023-03-17T12:26:11.120Z,29.80
2023-03-17T12:28:50.236Z,30.48
2023-03-17T12:31:27.689Z,30.68
2023-03-17T12:34:09.735Z,30.71
2023-03-17T12:36:44.274Z,31.22
2023-03-17T12:39:20.822Z,31.16
2023-03-17T12:42:15.969Z,31.10
2023-03-17T12:45:07.569Z,31.71
2023-03-17T12:47:55.392Z,31.45
2023-03-17T12:51:06.817Z,32.11
2023-03-17T12:53:42.948Z,32.24
2023-03-17T12:56:23.022Z,32.37
2023-03-17T12:59:01.549Z,32.44
2023-03-17T13:01:35.462Z,32.76
2023-03-17T13:04:26.846Z,33.21
2023-03-17T13:07:12.905Z,33.13
2023-03-17T13:10:12.341Z,32.85
2023-03-17T13:13:14.886Z,33.03
2023-03-17T13:16:04.876Z,33.16
2023-03-17T13:19:07.782Z,33.34
2023-03-17T13:21:45.868Z,33.48
2023-03-17T13:24:42.228Z,33.60
2023-03-17T13:27:38.422Z,33.72
2023-03-17T13:30:42.564Z,34.00
2023-03-17T13:33:27.635Z,33.97
2023-03-17T13:36:19.437Z,34.00
2023-03-17T13:39:42.016Z,33.93
2023-03-17T13:42:27.830Z,33.84
2023-03-17T13:45:23.616Z,33.85
2023-03-17T13:48:27.882Z,33.87
2023-03-17T13:51:15.124Z,33.93
2023-03-17T13:53:54.250Z,33.89
2023-03-17T13:56:47.524Z,33.93
2023-03-17T13:59:21.982Z,33.65
2023-03-17T14:02:01.800Z,33.81
2023-03-17T14:04:48.204Z,33.78
2023-03-17T14:07:25.516Z,33.64
2023-03-17T14:10:05.493Z,33.50
2023-03-17T14:12:46.634Z,33.74
2023-03-17T14:15:28.360Z,33.88
2023-03-17T14:18:06.310Z,33.77
2023-03-17T14:20:40.306Z,33.71
2023-03-17T14:23:13.899Z,33.72
2023-03-17T14:25:47.978Z,34.15
2023-03-17T14:28:26.819Z,34.05
2023-03-17T14:31:00.696Z,33.79
2023-03-17T14:33:38.854Z,33.79
2023-03-17T14:36:15.479Z,33.90
2023-03-17T14:38:53.202Z,34.10
2023-03-17T14:41:28.412Z,34.41
2023-03-17T14:44:03.572Z,34.59
2023-03-17T14:46:40.739Z,34.72
2023-03-17T14:49:20.017Z,34.61
2023-03-17T14:51:56.683Z,34.55
2023-03-17T14:54:33.843Z,34.84
2023-03-17T14:57:10.497Z,35.20
2023-03-17T14:59:45.361Z,35.21
2023-03-17T15:02:30.125Z,35.34
2023-03-17T15:05:08.410Z,35.59
2023-03-17T15:07:43.985Z,35.88
2023-03-17T15:10:21.277Z,35.97
2023-03-17T15:13:04.455Z,36.25
2023-03-17T15:15:41.902Z,36.35
2023-03-17T15:18:17.188Z,36.32
2023-03-17T15:20:51.873Z,36.35
2023-03-17T15:23:30.452Z,36.41
2023-03-17T15:26:10.525Z,36.44
2023-03-17T15:28:44.804Z,36.57
2023-03-17T15:31:18.425Z,36.66
2023-03-17T15:33:52.725Z,36.99
2023-03-17T15:36:32.792Z,37.08
2023-03-17T15:39:07.746Z,37.01
2023-03-17T15:41:41.961Z,37.13
2023-03-17T15:44:16.303Z,37.31
2023-03-17T15:46:50.176Z,37.25
2023-03-17T15:49:26.778Z,37.38
2023-03-17T15:52:00.424Z,37.54
2023-03-17T15:54:34.290Z,37.48
2023-03-17T15:57:08.527Z,37.68
2023-03-17T15:59:42.549Z,37.69
2023-03-17T16:02:34.408Z,37.69
2023-03-17T16:05:19.652Z,37.81
2023-03-17T16:07:53.955Z,37.97
2023-03-17T16:10:29.701Z,38.03
2023-03-17T16:13:03.857Z,38.14
2023-03-17T16:15:42.521Z,38.22
2023-03-17T16:18:17.151Z,38.35
2023-03-17T16:20:54.241Z,38.49
2023-03-17T16:23:31.853Z,38.66
2023-03-17T16:26:16.517Z,38.69
2023-03-17T16:28:51.756Z,38.89
2023-03-17T16:31:29.562Z,38.95
2023-03-17T16:34:04.096Z,39.06
2023-03-17T16:36:38.367Z,39.26
2023-03-17T16:39:18.878Z,39.30
2023-03-17T16:41:53.821Z,39.44
2023-03-17T16:44:28.400Z,39.72
2023-03-17T16:47:02.490Z,39.77
2023-03-17T16:49:36.458Z,39.86
2023-03-17T16:52:11.590Z,39.89
2023-03-17T16:54:45.273Z,40.13
2023-03-17T16:57:20.207Z,40.22
2023-03-17T16:59:54.346Z,40.33
2023-03-17T17:02:30.298Z,40.31
2023-03-17T17:05:07.601Z,40.41
2023-03-17T17:07:42.160Z,40.54
2023-03-17T17:10:19.257Z,40.64
2023-03-17T17:12:53.972Z,40.56
2023-03-17T17:15:30.312Z,40.63
2023-03-17T17:18:09.260Z,40.87
2023-03-17T17:20:44.944Z,40.83
2023-03-17T17:23:25.255Z,40.92
2023-03-17T17:26:00.302Z,40.84
2023-03-17T17:28:36.074Z,40.83
2023-03-17T17:31:12.395Z,40.94
2023-03-17T17:33:48.642Z,40.97
2023-03-17T17:36:22.911Z,40.87
2023-03-17T17:39:00.261Z,41.00
2023-03-17T17:41:35.960Z,41.00
2023-03-17T17:44:13.306Z,41.16
2023-03-17T17:46:50.132Z,41.51
2023-03-17T17:49:32.473Z,41.52
2023-03-17T17:52:12.952Z,41.71
2023-03-17T17:54:57.951Z,41.87
2023-03-17T17:57:35.013Z,42.27
2023-03-17T18:00:19.671Z,42.18
2023-03-17T18:02:59.226Z,42.22
2023-03-17T18:05:35.099Z,42.29
2023-03-17T18:08:21.358Z,42.54
2023-03-17T18:10:58.433Z,42.60
2023-03-17T18:13:40.107Z,42.75
2023-03-17T18:16:19.756Z,42.79
2023-03-17T18:18:58.709Z,42.87
2023-03-17T18:21:37.523Z,42.87
2023-03-17T18:24:14.152Z,42.89
2023-03-17T18:26:52.520Z,43.10
2023-03-17T18:29:30.556Z,43.40
2023-03-17T18:32:09.179Z,43.34
2023-03-17T18:34:57.952Z,43.28
2023-03-17T18:37:44.865Z,43.49
2023-03-17T18:40:26.165Z,43.57
2023-03-17T18:43:02.670Z,43.59
2023-03-17T18:45:39.180Z,43.68
2023-03-17T18:48:19.307Z,43.68
2023-03-17T18:50:56.806Z,43.80
2023-03-17T18:53:37.784Z,43.90
2023-03-17T18:56:23.383Z,44.04
2023-03-17T18:59:05.014Z,44.24
2023-03-17T19:01:43.333Z,44.22
2023-03-17T19:04:21.075Z,44.15
2023-03-17T19:06:58.577Z,44.39
2023-03-17T19:09:35.833Z,44.41
2023-03-17T19:12:14.546Z,44.42
2023-03-17T19:14:55.876Z,44.49
2023-03-17T19:17:43.141Z,44.63
2023-03-17T19:20:23.070Z,44.62
2023-03-17T19:22:59.606Z,44.75
2023-03-17T19:25:37.968Z,44.80
2023-03-17T19:28:16.987Z,44.71
2023-03-17T19:30:57.034Z,44.82
2023-03-17T19:33:33.660Z,44.92
2023-03-17T19:36:15.941Z,45.01
2023-03-17T19:38:53.909Z,45.10
2023-03-17T19:41:35.823Z,45.22
2023-03-17T19:44:16.674Z,45.14
2023-03-17T19:46:55.398Z,45.23
2023-03-17T19:49:32.150Z,45.27
2023-03-17T19:52:10.574Z,45.53
2023-03-17T19:54:50.001Z,45.56
2023-03-17T19:57:24.906Z,45.61
2023-03-17T20:00:03.922Z,45.64
2023-03-17T20:02:46.997Z,45.78
2023-03-17T20:05:28.110Z,45.70
2023-03-17T20:08:09.890Z,45.61
2023-03-17T20:10:49.029Z,45.89
2023-03-17T20:13:25.906Z,46.03
2023-03-17T20:16:02.774Z,46.12
2023-03-17T20:18:43.925Z,46.23
2023-03-17T20:21:20.191Z,46.13
2023-03-17T20:23:57.827Z,46.21
2023-03-17T20:26:35.063Z,46.11
2023-03-17T20:29:11.667Z,46.37
2023-03-17T20:31:49.399Z,46.61
2023-03-17T20:34:26.811Z,46.44
2023-03-17T20:37:11.272Z,46.41
2023-03-17T20:39:48.236Z,46.60
2023-03-17T20:42:26.956Z,46.84
2023-03-17T20:45:05.132Z,46.78
2023-03-17T20:47:40.597Z,46.97
2023-03-17T20:50:19.115Z,46.91
2023-03-17T20:52:56.276Z,46.77
2023-03-17T20:55:33.823Z,46.77
2023-03-17T20:58:16.341Z,46.84
2023-03-17T21:00:55.287Z,46.70
2023-03-17T21:03:42.030Z,46.72
2023-03-17T21:06:26.161Z,46.92
2023-03-17T21:09:02.819Z,46.98
2023-03-17T21:11:40.999Z,46.96
2023-03-17T21:14:17.800Z,46.98
2023-03-17T21:16:53.076Z,46.83
2023-03-17T21:19:32.308Z,46.85
2023-03-17T21:22:09.731Z,46.94
2023-03-17T21:24:43.637Z,46.96
2023-03-17T21:27:18.741Z,46.97
2023-03-17T21:29:54.511Z,47.20
2023-03-17T21:32:33.473Z,47.34
2023-03-17T21:35:11.716Z,47.17
2023-03-17T21:37:45.858Z,47.17
2023-03-17T21:40:21.647Z,47.34
2023-03-17T21:42:56.574Z,47.25
2023-03-17T21:45:31.613Z,47.25
2023-03-17T21:48:05.603Z,47.32
2023-03-17T21:50:40.112Z,47.24
2023-03-17T21:53:17.041Z,47.16
2023-03-17T21:55:50.992Z,47.25
2023-03-17T21:58:24.789Z,47.34
2023-03-17T22:01:01.029Z,47.28
2023-03-17T22:03:35.147Z,47.31
2023-03-17T22:06:10.143Z,47.23
2023-03-17T22:08:44.674Z,47.31
2023-03-17T22:11:20.559Z,47.37
2023-03-17T22:13:54.121Z,47.47
2023-03-17T22:16:28.170Z,47.43
2023-03-17T22:19:02.278Z,47.26
2023-03-17T22:21:35.583Z,47.29
2023-03-17T22:24:09.827Z,47.29
2023-03-17T22:26:43.581Z,47.36
2023-03-17T22:29:17.316Z,47.25
2023-03-17T22:31:51.312Z,47.20
2023-03-17T22:34:24.999Z,47.25
2023-03-17T22:36:58.791Z,47.25
2023-03-17T22:39:32.648Z,47.23
2023-03-17T22:42:06.764Z,47.27
2023-03-17T22:44:40.710Z,47.24
2023-03-17T22:47:14.708Z,47.11
2023-03-17T22:49:48.402Z,47.07
2023-03-17T22:52:22.165Z,47.01
2023-03-17T22:54:56.266Z,47.02
2023-03-17T22:57:30.070Z,47.10
2023-03-17T23:00:04.324Z,47.04
2023-03-17T23:02:37.993Z,47.02
2023-03-17T23:05:13.695Z,47.08
2023-03-17T23:07:50.836Z,47.06
2023-03-17T23:10:25.590Z,47.01
2023-03-17T23:12:59.757Z,47.02
2023-03-17T23:15:34.671Z,47.10
2023-03-17T23:18:09.702Z,47.06
2023-03-17T23:20:43.956Z,47.02
2023-03-17T23:23:18.549Z,46.97
2023-03-17T23:25:52.325Z,47.12
2023-03-17T23:28:25.852Z,47.04
2023-03-17T23:30:59.936Z,46.91
2023-03-17T23:33:34.382Z,46.91
2023-03-17T23:36:09.502Z,47.00
2023-03-17T23:38:42.939Z,47.06
2023-03-17T23:41:17.790Z,47.12
2023-03-17T23:43:51.645Z,47.12
2023-03-17T23:46:25.071Z,47.02
2023-03-17T23:48:58.812Z,46.98
2023-03-17T23:51:32.512Z,47.05
2023-03-17T23:54:08.049Z,46.97
2023-03-17T23:56:41.966Z,46.98
2023-03-17T23:59:15.884Z,47.04
